sensor_id;sensor_type;location;lat;lon;timestamp;temperature;humidity
47618;DHT22;33336;36.728;-4.414;2023-07-31T00:02:38;29.30;99.90
47618;DHT22;33336;36.728;-4.414;2023-07-31T00:07:43;29.50;99.90
47618;DHT22;33336;36.728;-4.414;2023-07-31T00:12:47;28.90;99.90
47618;DHT22;33336;36.728;-4.414;2023-07-31T00:17:51;28.50;99.90
47618;DHT22;33336;36.728;-4.414;2023-07-31T00:22:54;29.00;99.90
47618;DHT22;33336;36.728;-4.414;2023-07-31T00:27:59;28.90;99.90
47618;DHT22;33336;36.728;-4.414;2023-07-31T00:33:02;28.30;99.90
47618;DHT22;33336;36.728;-4.414;2023-07-31T00:38:06;28.00;99.90
47618;DHT22;33336;36.728;-4.414;2023-07-31T00:43:10;28.30;99.90
47618;DHT22;33336;36.728;-4.414;2023-07-31T00:48:14;28.00;99.90
47618;DHT22;33336;36.728;-4.414;2023-07-31T00:53:17;28.60;99.90
47618;DHT22;33336;36.728;-4.414;2023-07-31T00:58:21;28.40;99.90
47618;DHT22;33336;36.728;-4.414;2023-07-31T01:03:24;28.20;99.90
47618;DHT22;33336;36.728;-4.414;2023-07-31T01:08:33;28.60;99.90
47618;DHT22;33336;36.728;-4.414;2023-07-31T01:13:42;28.50;99.90
47618;DHT22;33336;36.728;-4.414;2023-07-31T01:18:46;28.50;99.90
47618;DHT22;33336;36.728;-4.414;2023-07-31T01:29:29;28.20;99.90
47618;DHT22;33336;36.728;-4.414;2023-07-31T01:34:34;28.10;99.90
47618;DHT22;33336;36.728;-4.414;2023-07-31T01:39:38;28.40;99.90
47618;DHT22;33336;36.728;-4.414;2023-07-31T01:44:42;28.40;99.90
47618;DHT22;33336;36.728;-4.414;2023-07-31T01:49:46;28.50;99.90
47618;DHT22;33336;36.728;-4.414;2023-07-31T01:54:48;28.50;99.90
47618;DHT22;33336;36.728;-4.414;2023-07-31T01:59:53;28.30;99.90
47618;DHT22;33336;36.728;-4.414;2023-07-31T02:04:56;28.50;99.90
47618;DHT22;33336;36.728;-4.414;2023-07-31T02:10:00;28.50;99.90
47618;DHT22;33336;36.728;-4.414;2023-07-31T02:15:05;28.60;99.90
47618;DHT22;33336;36.728;-4.414;2023-07-31T02:20:09;28.40;99.90
47618;DHT22;33336;36.728;-4.414;2023-07-31T02:25:12;28.60;99.90
47618;DHT22;33336;36.728;-4.414;2023-07-31T02:30:17;28.50;99.90
47618;DHT22;33336;36.728;-4.414;2023-07-31T02:35:20;28.60;99.90
47618;DHT22;33336;36.728;-4.414;2023-07-31T02:40:23;28.60;99.90
47618;DHT22;33336;36.728;-4.414;2023-07-31T02:45:27;28.70;99.90
47618;DHT22;33336;36.728;-4.414;2023-07-31T02:50:31;28.60;99.90
47618;DHT22;33336;36.728;-4.414;2023-07-31T02:55:34;28.40;99.90
47618;DHT22;33336;36.728;-4.414;2023-07-31T03:00:43;28.30;99.90
47618;DHT22;33336;36.728;-4.414;2023-07-31T03:05:46;28.50;99.90
47618;DHT22;33336;36.728;-4.414;2023-07-31T03:10:49;28.50;99.90
47618;DHT22;33336;36.728;-4.414;2023-07-31T03:15:53;28.20;99.90
47618;DHT22;33336;36.728;-4.414;2023-07-31T03:20:56;27.60;99.90
47618;DHT22;33336;36.728;-4.414;2023-07-31T03:26:00;27.50;99.90
47618;DHT22;33336;36.728;-4.414;2023-07-31T03:31:04;27.30;99.90
47618;DHT22;33336;36.728;-4.414;2023-07-31T03:36:07;27.30;99.90
47618;DHT22;33336;36.728;-4.414;2023-07-31T03:41:11;27.60;99.90
47618;DHT22;33336;36.728;-4.414;2023-07-31T03:46:15;28.00;99.90
47618;DHT22;33336;36.728;-4.414;2023-07-31T03:51:18;28.20;99.90
47618;DHT22;33336;36.728;-4.414;2023-07-31T03:56:21;28.30;99.90
47618;DHT22;33336;36.728;-4.414;2023-07-31T04:01:26;28.30;99.90
47618;DHT22;33336;36.728;-4.414;2023-07-31T04:06:28;28.30;99.90
47618;DHT22;33336;36.728;-4.414;2023-07-31T04:11:31;28.30;99.90
47618;DHT22;33336;36.728;-4.414;2023-07-31T04:16:36;28.30;99.90
47618;DHT22;33336;36.728;-4.414;2023-07-31T04:21:39;28.30;99.90
47618;DHT22;33336;36.728;-4.414;2023-07-31T04:26:41;27.70;99.90
47618;DHT22;33336;36.728;-4.414;2023-07-31T04:31:47;27.80;99.90
47618;DHT22;33336;36.728;-4.414;2023-07-31T04:36:50;28.10;99.90
47618;DHT22;33336;36.728;-4.414;2023-07-31T04:41:54;27.80;99.90
47618;DHT22;33336;36.728;-4.414;2023-07-31T04:46:58;27.90;99.90
47618;DHT22;33336;36.728;-4.414;2023-07-31T04:52:02;28.00;99.90
47618;DHT22;33336;36.728;-4.414;2023-07-31T04:57:05;27.80;99.90
47618;DHT22;33336;36.728;-4.414;2023-07-31T05:02:12;27.70;99.90
47618;DHT22;33336;36.728;-4.414;2023-07-31T05:07:15;27.70;99.90
47618;DHT22;33336;36.728;-4.414;2023-07-31T05:12:18;27.80;99.90
47618;DHT22;33336;36.728;-4.414;2023-07-31T05:17:22;27.20;99.90
47618;DHT22;33336;36.728;-4.414;2023-07-31T05:22:26;27.50;99.90
47618;DHT22;33336;36.728;-4.414;2023-07-31T05:27:28;27.80;99.90
47618;DHT22;33336;36.728;-4.414;2023-07-31T05:32:33;27.90;99.90
47618;DHT22;33336;36.728;-4.414;2023-07-31T05:37:36;27.80;99.90
47618;DHT22;33336;36.728;-4.414;2023-07-31T05:42:40;27.90;99.90
47618;DHT22;33336;36.728;-4.414;2023-07-31T05:47:44;28.00;99.90
47618;DHT22;33336;36.728;-4.414;2023-07-31T05:52:48;28.00;99.90
47618;DHT22;33336;36.728;-4.414;2023-07-31T05:57:50;27.80;99.90
47618;DHT22;33336;36.728;-4.414;2023-07-31T06:02:55;27.90;99.90
47618;DHT22;33336;36.728;-4.414;2023-07-31T06:07:58;28.00;99.90
47618;DHT22;33336;36.728;-4.414;2023-07-31T06:13:01;28.00;99.90
47618;DHT22;33336;36.728;-4.414;2023-07-31T06:18:05;28.20;99.90
47618;DHT22;33336;36.728;-4.414;2023-07-31T06:23:09;28.20;99.90
47618;DHT22;33336;36.728;-4.414;2023-07-31T06:28:11;28.40;99.90
47618;DHT22;33336;36.728;-4.414;2023-07-31T06:33:16;28.50;99.90
47618;DHT22;33336;36.728;-4.414;2023-07-31T06:38:25;28.60;99.80
47618;DHT22;33336;36.728;-4.414;2023-07-31T06:43:29;28.70;99.90
47618;DHT22;33336;36.728;-4.414;2023-07-31T06:48:33;28.80;99.00
47618;DHT22;33336;36.728;-4.414;2023-07-31T06:53:37;28.70;98.70
47618;DHT22;33336;36.728;-4.414;2023-07-31T06:58:40;28.50;99.00
47618;DHT22;33336;36.728;-4.414;2023-07-31T07:03:44;28.60;98.90
47618;DHT22;33336;36.728;-4.414;2023-07-31T07:08:47;29.00;98.60
47618;DHT22;33336;36.728;-4.414;2023-07-31T07:13:51;29.00;98.80
47618;DHT22;33336;36.728;-4.414;2023-07-31T07:18:55;28.90;98.70
47618;DHT22;33336;36.728;-4.414;2023-07-31T07:23:58;29.00;98.50
47618;DHT22;33336;36.728;-4.414;2023-07-31T07:29:00;28.80;99.40
47618;DHT22;33336;36.728;-4.414;2023-07-31T07:34:05;28.50;99.90
47618;DHT22;33336;36.728;-4.414;2023-07-31T07:39:09;28.90;99.90
47618;DHT22;33336;36.728;-4.414;2023-07-31T07:44:13;28.30;99.90
47618;DHT22;33336;36.728;-4.414;2023-07-31T07:49:17;28.60;99.90
47618;DHT22;33336;36.728;-4.414;2023-07-31T07:54:21;28.40;99.90
47618;DHT22;33336;36.728;-4.414;2023-07-31T07:59:24;28.70;99.90
47618;DHT22;33336;36.728;-4.414;2023-07-31T08:04:28;28.90;99.90
47618;DHT22;33336;36.728;-4.414;2023-07-31T08:09:32;28.50;99.90
47618;DHT22;33336;36.728;-4.414;2023-07-31T08:14:34;28.60;99.90
47618;DHT22;33336;36.728;-4.414;2023-07-31T08:19:39;28.40;99.90
47618;DHT22;33336;36.728;-4.414;2023-07-31T08:24:42;28.50;99.90
47618;DHT22;33336;36.728;-4.414;2023-07-31T08:29:45;28.50;99.90
47618;DHT22;33336;36.728;-4.414;2023-07-31T08:34:49;28.70;99.90
47618;DHT22;33336;36.728;-4.414;2023-07-31T08:39:52;28.40;99.90
47618;DHT22;33336;36.728;-4.414;2023-07-31T08:44:56;27.90;99.90
47618;DHT22;33336;36.728;-4.414;2023-07-31T08:50:02;27.70;99.90
47618;DHT22;33336;36.728;-4.414;2023-07-31T08:55:06;28.20;99.90
47618;DHT22;33336;36.728;-4.414;2023-07-31T09:00:11;28.50;99.90
47618;DHT22;33336;36.728;-4.414;2023-07-31T09:05:16;28.60;99.90
47618;DHT22;33336;36.728;-4.414;2023-07-31T09:10:20;28.50;99.90
47618;DHT22;33336;36.728;-4.414;2023-07-31T09:15:23;28.10;99.90
47618;DHT22;33336;36.728;-4.414;2023-07-31T09:20:28;28.20;99.90
47618;DHT22;33336;36.728;-4.414;2023-07-31T09:25:31;28.10;99.90
47618;DHT22;33336;36.728;-4.414;2023-07-31T09:30:48;28.20;99.90
47618;DHT22;33336;36.728;-4.414;2023-07-31T09:35:52;27.80;99.90
47618;DHT22;33336;36.728;-4.414;2023-07-31T09:40:59;27.60;99.90
47618;DHT22;33336;36.728;-4.414;2023-07-31T09:46:02;28.20;99.90
47618;DHT22;33336;36.728;-4.414;2023-07-31T09:51:06;29.10;99.90
47618;DHT22;33336;36.728;-4.414;2023-07-31T09:56:09;28.30;99.90
47618;DHT22;33336;36.728;-4.414;2023-07-31T10:01:13;28.60;99.90
47618;DHT22;33336;36.728;-4.414;2023-07-31T10:06:18;28.20;99.90
47618;DHT22;33336;36.728;-4.414;2023-07-31T10:11:21;28.20;99.90
47618;DHT22;33336;36.728;-4.414;2023-07-31T10:16:25;28.80;99.90
47618;DHT22;33336;36.728;-4.414;2023-07-31T10:21:31;29.10;99.90
47618;DHT22;33336;36.728;-4.414;2023-07-31T10:26:38;28.50;99.90
47618;DHT22;33336;36.728;-4.414;2023-07-31T10:31:42;28.90;99.90
47618;DHT22;33336;36.728;-4.414;2023-07-31T10:36:46;28.90;99.90
47618;DHT22;33336;36.728;-4.414;2023-07-31T10:41:51;29.10;99.90
47618;DHT22;33336;36.728;-4.414;2023-07-31T10:46:54;29.10;99.90
47618;DHT22;33336;36.728;-4.414;2023-07-31T10:51:59;28.80;99.90
47618;DHT22;33336;36.728;-4.414;2023-07-31T10:57:01;29.20;99.90
47618;DHT22;33336;36.728;-4.414;2023-07-31T11:02:04;29.60;99.90
47618;DHT22;33336;36.728;-4.414;2023-07-31T11:07:09;29.80;99.90
47618;DHT22;33336;36.728;-4.414;2023-07-31T11:12:13;30.30;99.90
47618;DHT22;33336;36.728;-4.414;2023-07-31T11:17:18;30.70;99.90
47618;DHT22;33336;36.728;-4.414;2023-07-31T11:22:23;30.40;99.90
47618;DHT22;33336;36.728;-4.414;2023-07-31T11:27:27;30.30;99.90
47618;DHT22;33336;36.728;-4.414;2023-07-31T11:32:31;30.50;99.90
47618;DHT22;33336;36.728;-4.414;2023-07-31T11:37:41;30.70;99.90
47618;DHT22;33336;36.728;-4.414;2023-07-31T11:42:44;30.50;99.90
47618;DHT22;33336;36.728;-4.414;2023-07-31T11:47:47;31.20;99.90
47618;DHT22;33336;36.728;-4.414;2023-07-31T11:52:54;31.50;99.90
47618;DHT22;33336;36.728;-4.414;2023-07-31T11:57:59;31.30;99.90
47618;DHT22;33336;36.728;-4.414;2023-07-31T12:03:03;31.40;99.90
47618;DHT22;33336;36.728;-4.414;2023-07-31T12:08:11;31.00;99.90
47618;DHT22;33336;36.728;-4.414;2023-07-31T12:13:22;31.10;99.90
47618;DHT22;33336;36.728;-4.414;2023-07-31T12:18:27;30.70;99.90
47618;DHT22;33336;36.728;-4.414;2023-07-31T12:23:32;31.30;99.90
47618;DHT22;33336;36.728;-4.414;2023-07-31T12:28:36;31.60;99.90
47618;DHT22;33336;36.728;-4.414;2023-07-31T12:33:40;31.90;99.90
47618;DHT22;33336;36.728;-4.414;2023-07-31T12:38:45;31.90;99.90
47618;DHT22;33336;36.728;-4.414;2023-07-31T12:43:48;31.20;99.90
47618;DHT22;33336;36.728;-4.414;2023-07-31T12:48:51;31.70;99.90
47618;DHT22;33336;36.728;-4.414;2023-07-31T12:53:58;31.20;99.90
47618;DHT22;33336;36.728;-4.414;2023-07-31T12:59:23;30.60;99.90
47618;DHT22;33336;36.728;-4.414;2023-07-31T13:04:33;30.50;99.90
47618;DHT22;33336;36.728;-4.414;2023-07-31T13:09:40;30.50;99.90
47618;DHT22;33336;36.728;-4.414;2023-07-31T13:14:46;30.90;99.90
47618;DHT22;33336;36.728;-4.414;2023-07-31T13:19:48;30.80;99.90
47618;DHT22;33336;36.728;-4.414;2023-07-31T13:24:53;30.30;99.90
47618;DHT22;33336;36.728;-4.414;2023-07-31T13:29:56;31.60;99.90
47618;DHT22;33336;36.728;-4.414;2023-07-31T13:34:59;30.30;99.90
47618;DHT22;33336;36.728;-4.414;2023-07-31T13:40:05;29.90;99.90
47618;DHT22;33336;36.728;-4.414;2023-07-31T13:45:09;30.20;99.90
47618;DHT22;33336;36.728;-4.414;2023-07-31T13:50:12;30.60;99.90
47618;DHT22;33336;36.728;-4.414;2023-07-31T13:55:16;31.80;99.90
47618;DHT22;33336;36.728;-4.414;2023-07-31T14:00:19;31.70;99.90
47618;DHT22;33336;36.728;-4.414;2023-07-31T14:05:23;30.90;99.90
47618;DHT22;33336;36.728;-4.414;2023-07-31T14:10:30;31.70;99.90
47618;DHT22;33336;36.728;-4.414;2023-07-31T14:15:34;32.50;99.90
47618;DHT22;33336;36.728;-4.414;2023-07-31T14:20:37;32.10;99.90
47618;DHT22;33336;36.728;-4.414;2023-07-31T14:25:42;32.90;99.90
47618;DHT22;33336;36.728;-4.414;2023-07-31T14:30:45;32.50;99.90
47618;DHT22;33336;36.728;-4.414;2023-07-31T14:35:47;33.40;99.90
47618;DHT22;33336;36.728;-4.414;2023-07-31T14:40:52;33.10;99.90
47618;DHT22;33336;36.728;-4.414;2023-07-31T14:45:55;33.30;99.90
47618;DHT22;33336;36.728;-4.414;2023-07-31T14:51:00;34.10;99.90
47618;DHT22;33336;36.728;-4.414;2023-07-31T14:56:05;33.80;99.90
47618;DHT22;33336;36.728;-4.414;2023-07-31T15:01:08;34.40;99.90
47618;DHT22;33336;36.728;-4.414;2023-07-31T15:06:11;33.30;99.90
47618;DHT22;33336;36.728;-4.414;2023-07-31T15:11:16;33.80;99.90
47618;DHT22;33336;36.728;-4.414;2023-07-31T15:16:19;34.10;99.50
47618;DHT22;33336;36.728;-4.414;2023-07-31T15:21:22;34.20;99.40
47618;DHT22;33336;36.728;-4.414;2023-07-31T15:26:27;34.50;99.20
47618;DHT22;33336;36.728;-4.414;2023-07-31T15:31:30;34.70;99.50
47618;DHT22;33336;36.728;-4.414;2023-07-31T15:36:34;33.50;99.00
47618;DHT22;33336;36.728;-4.414;2023-07-31T15:41:38;33.80;99.90
47618;DHT22;33336;36.728;-4.414;2023-07-31T15:46:41;33.80;99.40
47618;DHT22;33336;36.728;-4.414;2023-07-31T15:51:44;36.10;97.10
47618;DHT22;33336;36.728;-4.414;2023-07-31T15:56:49;36.20;97.20
47618;DHT22;33336;36.728;-4.414;2023-07-31T16:01:52;35.50;97.40
47618;DHT22;33336;36.728;-4.414;2023-07-31T16:06:55;35.80;97.00
47618;DHT22;33336;36.728;-4.414;2023-07-31T16:12:00;37.50;96.30
47618;DHT22;33336;36.728;-4.414;2023-07-31T16:17:04;38.60;95.20
47618;DHT22;33336;36.728;-4.414;2023-07-31T16:22:12;38.70;94.50
47618;DHT22;33336;36.728;-4.414;2023-07-31T16:27:17;38.40;93.10
47618;DHT22;33336;36.728;-4.414;2023-07-31T16:32:24;37.30;93.60
47618;DHT22;33336;36.728;-4.414;2023-07-31T16:37:27;39.00;91.90
47618;DHT22;33336;36.728;-4.414;2023-07-31T16:42:32;37.80;93.90
47618;DHT22;33336;36.728;-4.414;2023-07-31T16:47:37;35.20;94.70
47618;DHT22;33336;36.728;-4.414;2023-07-31T16:52:40;35.60;93.40
47618;DHT22;33336;36.728;-4.414;2023-07-31T16:57:45;37.00;92.70
47618;DHT22;33336;36.728;-4.414;2023-07-31T17:02:48;36.60;92.10
47618;DHT22;33336;36.728;-4.414;2023-07-31T17:07:50;35.90;92.90
47618;DHT22;33336;36.728;-4.414;2023-07-31T17:12:55;36.30;92.50
47618;DHT22;33336;36.728;-4.414;2023-07-31T17:17:58;39.60;91.50
47618;DHT22;33336;36.728;-4.414;2023-07-31T17:23:02;40.30;88.70
47618;DHT22;33336;36.728;-4.414;2023-07-31T17:28:07;40.40;86.00
47618;DHT22;33336;36.728;-4.414;2023-07-31T17:33:10;42.40;82.70
47618;DHT22;33336;36.728;-4.414;2023-07-31T17:38:13;43.00;81.00
47618;DHT22;33336;36.728;-4.414;2023-07-31T17:43:18;45.20;78.30
47618;DHT22;33336;36.728;-4.414;2023-07-31T17:48:21;41.40;77.90
47618;DHT22;33336;36.728;-4.414;2023-07-31T17:53:24;42.90;78.60
47618;DHT22;33336;36.728;-4.414;2023-07-31T17:58:29;44.90;75.70
47618;DHT22;33336;36.728;-4.414;2023-07-31T18:03:32;45.00;74.80
47618;DHT22;33336;36.728;-4.414;2023-07-31T18:08:35;42.80;75.70
47618;DHT22;33336;36.728;-4.414;2023-07-31T18:13:40;44.90;74.30
47618;DHT22;33336;36.728;-4.414;2023-07-31T18:18:43;46.50;74.00
47618;DHT22;33336;36.728;-4.414;2023-07-31T18:23:46;46.50;72.30
47618;DHT22;33336;36.728;-4.414;2023-07-31T18:28:51;47.80;71.30
47618;DHT22;33336;36.728;-4.414;2023-07-31T18:33:53;47.90;69.70
47618;DHT22;33336;36.728;-4.414;2023-07-31T18:38:57;47.90;68.90
47618;DHT22;33336;36.728;-4.414;2023-07-31T18:44:02;47.60;69.10
47618;DHT22;33336;36.728;-4.414;2023-07-31T18:49:05;44.30;70.00
47618;DHT22;33336;36.728;-4.414;2023-07-31T18:54:08;43.50;70.50
47618;DHT22;33336;36.728;-4.414;2023-07-31T18:59:13;43.70;71.00
47618;DHT22;33336;36.728;-4.414;2023-07-31T19:04:16;41.50;72.60
47618;DHT22;33336;36.728;-4.414;2023-07-31T19:09:27;40.50;74.00
47618;DHT22;33336;36.728;-4.414;2023-07-31T19:14:32;38.80;75.10
47618;DHT22;33336;36.728;-4.414;2023-07-31T19:19:34;37.30;78.00
47618;DHT22;33336;36.728;-4.414;2023-07-31T19:24:37;37.00;78.50
47618;DHT22;33336;36.728;-4.414;2023-07-31T19:29:42;37.20;78.80
47618;DHT22;33336;36.728;-4.414;2023-07-31T19:34:44;36.60;80.40
47618;DHT22;33336;36.728;-4.414;2023-07-31T19:39:47;36.60;81.00
47618;DHT22;33336;36.728;-4.414;2023-07-31T19:44:52;36.00;81.60
47618;DHT22;33336;36.728;-4.414;2023-07-31T19:49:55;35.50;82.40
47618;DHT22;33336;36.728;-4.414;2023-07-31T19:54:58;34.50;84.40
47618;DHT22;33336;36.728;-4.414;2023-07-31T20:00:03;33.60;86.70
47618;DHT22;33336;36.728;-4.414;2023-07-31T20:05:06;33.50;86.80
47618;DHT22;33336;36.728;-4.414;2023-07-31T20:10:10;33.70;87.10
47618;DHT22;33336;36.728;-4.414;2023-07-31T20:15:20;34.00;87.10
47618;DHT22;33336;36.728;-4.414;2023-07-31T20:20:23;33.60;87.60
47618;DHT22;33336;36.728;-4.414;2023-07-31T20:25:26;33.20;88.70
47618;DHT22;33336;36.728;-4.414;2023-07-31T20:30:31;33.50;88.50
47618;DHT22;33336;36.728;-4.414;2023-07-31T20:35:34;33.50;88.50
47618;DHT22;33336;36.728;-4.414;2023-07-31T20:40:38;33.10;89.40
47618;DHT22;33336;36.728;-4.414;2023-07-31T20:45:43;32.90;89.70
47618;DHT22;33336;36.728;-4.414;2023-07-31T20:50:46;32.50;90.60
47618;DHT22;33336;36.728;-4.414;2023-07-31T20:55:50;32.30;90.90
47618;DHT22;33336;36.728;-4.414;2023-07-31T21:00:54;32.00;91.40
47618;DHT22;33336;36.728;-4.414;2023-07-31T21:05:57;31.70;92.60
47618;DHT22;33336;36.728;-4.414;2023-07-31T21:11:01;31.30;93.10
47618;DHT22;33336;36.728;-4.414;2023-07-31T21:16:05;31.30;93.50
47618;DHT22;33336;36.728;-4.414;2023-07-31T21:21:11;31.50;93.70
47618;DHT22;33336;36.728;-4.414;2023-07-31T21:26:14;31.40;93.60
47618;DHT22;33336;36.728;-4.414;2023-07-31T21:31:18;31.20;93.90
47618;DHT22;33336;36.728;-4.414;2023-07-31T21:36:21;31.50;94.00
47618;DHT22;33336;36.728;-4.414;2023-07-31T21:41:25;31.50;94.20
47618;DHT22;33336;36.728;-4.414;2023-07-31T21:46:29;31.60;93.60
47618;DHT22;33336;36.728;-4.414;2023-07-31T21:51:32;31.40;93.20
47618;DHT22;33336;36.728;-4.414;2023-07-31T21:56:35;31.10;93.20
47618;DHT22;33336;36.728;-4.414;2023-07-31T22:01:40;31.40;92.70
47618;DHT22;33336;36.728;-4.414;2023-07-31T22:06:43;31.50;92.90
47618;DHT22;33336;36.728;-4.414;2023-07-31T22:11:50;31.60;92.70
47618;DHT22;33336;36.728;-4.414;2023-07-31T22:16:54;31.70;87.80
47618;DHT22;33336;36.728;-4.414;2023-07-31T22:21:57;31.70;77.50
47618;DHT22;33336;36.728;-4.414;2023-07-31T22:27:01;31.80;74.10
47618;DHT22;33336;36.728;-4.414;2023-07-31T22:32:07;31.90;69.40
47618;DHT22;33336;36.728;-4.414;2023-07-31T22:37:10;31.80;67.70
47618;DHT22;33336;36.728;-4.414;2023-07-31T22:42:13;31.70;67.70
47618;DHT22;33336;36.728;-4.414;2023-07-31T22:47:17;31.60;69.80
47618;DHT22;33336;36.728;-4.414;2023-07-31T22:52:22;31.60;66.40
47618;DHT22;33336;36.728;-4.414;2023-07-31T22:57:25;31.40;65.80
47618;DHT22;33336;36.728;-4.414;2023-07-31T23:02:30;31.70;64.40
47618;DHT22;33336;36.728;-4.414;2023-07-31T23:07:32;31.50;63.60
47618;DHT22;33336;36.728;-4.414;2023-07-31T23:12:35;31.60;60.50
47618;DHT22;33336;36.728;-4.414;2023-07-31T23:17:39;31.60;60.60
47618;DHT22;33336;36.728;-4.414;2023-07-31T23:22:42;31.70;59.90
47618;DHT22;33336;36.728;-4.414;2023-07-31T23:27:45;31.80;59.60
47618;DHT22;33336;36.728;-4.414;2023-07-31T23:32:50;31.70;59.70
47618;DHT22;33336;36.728;-4.414;2023-07-31T23:37:52;31.90;60.00
47618;DHT22;33336;36.728;-4.414;2023-07-31T23:42:56;31.80;60.10
47618;DHT22;33336;36.728;-4.414;2023-07-31T23:48:00;31.90;60.50
47618;DHT22;33336;36.728;-4.414;2023-07-31T23:53:04;32.10;60.60
47618;DHT22;33336;36.728;-4.414;2023-07-31T23:58:07;32.20;59.90
